首页
METAR-TAF:

METAR-TAF

机场 :

恰斯拉夫, 捷克共和国

纬度: 49-56-23N, 经度: 15-22-55E, 海拔: 242米

当前天气观测

该预报发布于35分钟前的10:00 UTC
风速14节,风向西北
温度 15°C
湿度 88%
气压 1007 hPa
能见度10公里或以上
多云层高于600英尺
阴天层高于1400英尺
小雨

METAR: LKCV 011000Z 31014KT 9999 -RA BKN006 OVC014 15/13 Q1007 NOSIG RMK YLO YLO

时间: 12:35 (10:35 UTC)

预报

该预报发布于5小时和35分钟前的05:00 UTC
预报有效从01日的 06点(UTC)到 02日的 06点(UTC)
风速8节,风向西北
能见度10公里或以上
多云层高于3000英尺
短暂存在
从 01日的 06点(UTC)到 01日的 13点(UTC)
风速16节,风向西北
能見度: 7000
多云层高于2500英尺
几率 30% :
短暂存在
从 01日的 06点(UTC)到 01日的 12点(UTC)
风速16节,风向西北,有时为26节阵风
能見度: 4000
多云层高于2000英尺, 积雨云.
雷暴, 雨
短暂存在
从 01日的 16点(UTC)到 01日的 21点(UTC)
能见度10公里或以上
1500米以下无云,无积雨云
成为
从 01日的 18点(UTC)到 01日的 20点(UTC)
风速10节,风向西
几率 40% :
短暂存在
从 01日的 22点(UTC)到 02日的 01点(UTC)
能見度: 7000
散云层高于2500英尺, 塔状积云.
阵雨

TAF: LKCV 010500Z 0106/0206 32008KT 9999 BKN030 TEMPO 0106/0113 32016KT 7000 RA BKN025 PROB30 TEMPO 0106/0112 32016G26KT 4000 TSRA BKN020CB TEMPO 0116/0121 CAVOK BECMG 0118/0120 26010KT PROB40 TEMPO 0122/0201 7000 SHRA SCT025TCU

超过4000个机场的气象观测和天气预报(METAR&TAF报告)。

可查询的气象台以黄色和红色小点在地图上表示。

将鼠标移到小点上方,可查看气象台名称。

然后点击查看天气观测和预报。

如需切换地图:点击带黑十字的绿色按钮放大地图;点击带横线的绿色按钮缩小地图;或者点击绿色箭头查看邻近地区的地图。


METAR-TAF: